Time;durP1;ratioP1;P1;durP2;ratioP2;P2;SDS_P1;SDS_P2;PMS_P1;PMS_P2;Temp;Humidity;BMP_temperature;BMP_pressure;BME280_temperature;BME280_humidity;BME280_pressure;Samples;Min_cycle;Max_cycle;Signal;HPM_P1;HPM_P2
2021/07/21 00:01:36;;;;;;;4.18;3.10;;;;;;;27.42;40.58;102137.75;5071331;28;20051;-74
2021/07/21 00:04:02;;;;;;;4.13;2.70;;;;;;;27.43;40.82;102139.38;5071486;28;20100;-74
2021/07/21 00:06:28;;;;;;;6.40;3.20;;;;;;;27.58;40.42;102135.41;5071396;28;20024;-74
2021/07/21 00:08:54;;;;;;;7.95;3.35;;;;;;;27.64;40.55;102131.81;5072308;28;20482;-74
2021/07/21 00:14:13;;;;;;;5.38;3.10;;;;;;;27.61;40.44;102135.44;5072928;28;20039;-74
2021/07/21 00:16:42;;;;;;;5.13;3.42;;;;;;;27.55;40.55;102139.00;5072425;28;20078;-74
2021/07/21 00:21:52;;;;;;;4.40;2.75;;;;;;;27.55;40.25;102151.03;5072582;28;20391;-74
2021/07/21 00:24:18;;;;;;;4.82;3.20;;;;;;;27.52;40.67;102151.84;5072385;28;20032;-74
2021/07/21 00:26:44;;;;;;;4.28;3.35;;;;;;;27.50;40.59;102157.03;5071228;28;20024;-74
2021/07/21 00:29:10;;;;;;;6.40;3.30;;;;;;;27.42;40.66;102149.00;5071236;28;20029;-74
2021/07/21 00:31:36;;;;;;;4.88;3.13;;;;;;;27.21;40.90;102160.94;5072150;28;20020;-74
2021/07/21 00:34:01;;;;;;;4.07;3.28;;;;;;;27.19;41.18;102152.09;5071121;28;20540;-74
2021/07/21 00:36:28;;;;;;;4.47;3.00;;;;;;;27.21;41.19;102152.53;5072224;28;20095;-74
2021/07/21 00:38:54;;;;;;;7.22;4.20;;;;;;;27.22;40.96;102154.13;5071014;28;20115;-74
2021/07/21 00:41:19;;;;;;;7.47;4.18;;;;;;;27.16;41.09;102145.28;5072327;28;20025;-74
2021/07/21 00:43:45;;;;;;;7.45;4.00;;;;;;;27.13;41.23;102150.84;5072368;28;20436;-74
2021/07/21 00:46:11;;;;;;;7.25;5.20;;;;;;;26.99;41.53;102143.16;5072169;28;20028;-74
2021/07/21 00:48:36;;;;;;;8.77;5.25;;;;;;;26.97;41.61;102145.53;5070953;28;20454;-74
2021/07/21 00:51:02;;;;;;;10.13;4.53;;;;;;;26.95;41.84;102137.53;5072217;28;20032;-74
2021/07/21 00:53:28;;;;;;;11.95;4.63;;;;;;;26.93;41.44;102139.13;5070817;28;20082;-74
2021/07/21 00:55:54;;;;;;;6.43;3.97;;;;;;;26.89;41.42;102146.69;5072099;28;20566;-74
2021/07/21 00:58:20;;;;;;;7.53;5.20;;;;;;;26.76;41.66;102146.22;5072376;28;20051;-74
2021/07/21 01:00:45;;;;;;;6.50;4.93;;;;;;;26.68;42.06;102144.56;5072041;28;20368;-74
2021/07/21 01:03:11;;;;;;;7.63;5.57;;;;;;;26.62;42.13;102146.94;5070891;28;20040;-74
2021/07/21 01:05:42;;;;;;;12.60;5.60;;;;;;;26.54;41.81;102145.28;5072242;28;20032;-74
2021/07/21 01:08:12;;;;;;;6.20;4.35;;;;;;;26.54;42.04;102142.47;5069887;28;20474;-74
2021/07/21 01:10:43;;;;;;;10.40;4.40;;;;;;;26.43;41.97;102147.97;5068955;28;20040;-74
2021/07/21 01:13:23;;;;;;;6.05;4.20;;;;;;;26.44;41.36;102143.97;5071588;28;20044;-74
2021/07/21 01:15:54;;;;;;;8.27;5.50;;;;;;;26.46;41.31;102138.81;5070722;28;20040;-74
2021/07/21 01:18:28;;;;;;;8.65;5.07;;;;;;;26.38;41.82;102142.72;5070692;28;20040;-74
2021/07/21 01:21:28;;;;;;;10.68;6.20;;;;;;;26.36;42.04;102147.88;5072240;28;20025;-73
2021/07/21 01:24:21;;;;;;;7.32;4.70;;;;;;;26.38;41.87;102147.53;5074632;28;20036;-74
2021/07/21 01:27:10;;;;;;;6.25;4.60;;;;;;;26.39;41.88;102149.16;5075701;28;20021;-74
2021/07/21 01:29:36;;;;;;;6.30;4.97;;;;;;;26.39;41.47;102147.16;5074945;28;20153;-74
2021/07/21 01:32:04;;;;;;;7.05;5.75;;;;;;;26.39;41.59;102147.16;5075431;28;20028;-75
2021/07/21 01:34:32;;;;;;;8.02;5.40;;;;;;;26.38;41.72;102145.53;5075371;28;20131;-74
2021/07/21 01:36:58;;;;;;;7.15;5.20;;;;;;;26.45;41.58;102147.59;5075416;28;20028;-74
2021/07/21 01:39:33;;;;;;;8.00;5.93;;;;;;;26.40;41.63;102150.75;5075448;28;20024;-74
2021/07/21 01:42:03;;;;;;;15.57;4.72;;;;;;;26.30;41.50;102143.84;5074083;28;20028;-74
2021/07/21 01:44:31;;;;;;;7.45;4.45;;;;;;;26.21;40.77;102144.16;5075365;28;20111;-74
2021/07/21 01:47:02;;;;;;;8.25;5.03;;;;;;;26.08;40.93;102150.47;5075280;28;20028;-74
2021/07/21 01:49:31;;;;;;;6.22;4.68;;;;;;;26.02;40.78;102146.38;5075304;28;20376;-74
2021/07/21 01:51:58;;;;;;;6.55;5.82;;;;;;;25.95;40.78;102147.94;5075389;28;20060;-74
2021/07/21 01:54:25;;;;;;;6.00;4.80;;;;;;;25.94;41.18;102142.72;5075127;28;20035;-74
2021/07/21 01:56:52;;;;;;;10.52;5.35;;;;;;;25.94;41.41;102140.72;5073612;28;20032;-74
2021/07/21 01:59:20;;;;;;;8.63;5.68;;;;;;;25.99;41.59;102140.34;5073842;28;20028;-74
2021/07/21 02:01:47;;;;;;;7.40;6.35;;;;;;;25.99;41.69;102143.16;5075080;28;20024;-74
2021/07/21 02:04:14;;;;;;;10.85;5.25;;;;;;;25.98;41.77;102144.34;5075096;28;20467;-74
2021/07/21 02:06:40;;;;;;;6.82;5.75;;;;;;;25.97;41.66;102148.34;5074778;28;20055;-74
2021/07/21 02:09:10;;;;;;;7.00;5.72;;;;;;;25.95;42.09;102147.13;5075001;28;20479;-73
2021/07/21 02:11:38;;;;;;;6.95;5.28;;;;;;;25.97;41.79;102144.72;5074861;28;20025;-74
2021/07/21 02:14:05;;;;;;;25.40;6.25;;;;;;;25.98;41.83;102137.94;5074690;28;20082;-74
2021/07/21 02:16:32;;;;;;;8.30;5.00;;;;;;;25.88;41.87;102147.84;5074703;28;20025;-74
2021/07/21 02:18:59;;;;;;;9.43;5.40;;;;;;;25.77;41.73;102143.31;5074798;28;20025;-74
2021/07/21 02:21:26;;;;;;;8.95;6.40;;;;;;;25.70;41.78;102141.25;5074661;28;20029;-73
2021/07/21 02:23:53;;;;;;;8.63;5.07;;;;;;;25.67;41.96;102142.00;5074642;28;20024;-74
2021/07/21 02:26:20;;;;;;;12.55;5.75;;;;;;;25.63;42.08;102135.56;5073267;28;20024;-74
2021/07/21 02:28:47;;;;;;;7.72;4.97;;;;;;;25.58;41.59;102135.91;5074444;28;20090;-73
2021/07/21 02:31:25;;;;;;;12.35;5.43;;;;;;;25.50;41.57;102137.00;5074496;28;20028;-75
2021/07/21 02:33:55;;;;;;;9.90;5.15;;;;;;;25.44;41.39;102134.53;5074072;28;20479;-74
2021/07/21 02:36:21;;;;;;;8.73;5.47;;;;;;;25.47;41.78;102138.56;5074206;28;20059;-74
2021/07/21 02:38:48;;;;;;;12.95;5.93;;;;;;;25.46;41.72;102126.56;5074211;28;20021;-74
2021/07/21 02:41:13;;;;;;;13.63;5.82;;;;;;;25.48;41.68;102136.59;5073072;28;20029;-74
2021/07/21 02:43:39;;;;;;;9.13;4.97;;;;;;;25.49;41.69;102136.19;5074016;28;20039;-74
2021/07/21 02:46:06;;;;;;;13.73;5.13;;;;;;;25.45;41.90;102141.72;5074285;28;20052;-74
2021/07/21 02:48:32;;;;;;;10.68;5.60;;;;;;;25.46;41.40;102145.34;5074093;28;20028;-74
2021/07/21 02:51:01;;;;;;;6.60;4.95;;;;;;;25.49;41.34;102146.59;5074066;28;20025;-74
2021/07/21 02:53:44;;;;;;;14.25;5.55;;;;;;;25.46;41.29;102137.75;5074089;28;20383;-74
2021/07/21 02:56:13;;;;;;;8.15;5.60;;;;;;;25.47;41.24;102138.56;5073822;28;20040;-75
2021/07/21 02:59:09;;;;;;;8.48;4.80;;;;;;;25.43;41.73;102144.13;5072656;28;20406;-74
2021/07/21 03:01:38;;;;;;;11.88;5.20;;;;;;;25.30;42.33;102144.75;5072246;28;20115;-74
2021/07/21 03:04:05;;;;;;;9.82;4.68;;;;;;;25.25;42.38;102145.09;5073876;28;20024;-74
2021/07/21 03:06:32;;;;;;;8.35;5.45;;;;;;;25.18;42.61;102145.81;5073868;28;20028;-74
2021/07/21 03:09:00;;;;;;;18.77;5.78;;;;;;;25.11;42.31;102140.13;5073652;28;20036;-74
2021/07/21 03:11:26;;;;;;;32.28;6.05;;;;;;;25.11;41.94;102137.31;5073436;28;20067;-74
2021/07/21 03:13:54;;;;;;;27.35;6.30;;;;;;;25.04;41.84;102143.63;5073176;28;20055;-74
2021/07/21 03:16:34;;;;;;;18.77;6.20;;;;;;;24.97;41.78;102142.69;5073567;28;20047;-74
2021/07/21 03:19:02;;;;;;;9.57;5.25;;;;;;;25.01;41.65;102144.31;5073626;28;20027;-73
2021/07/21 03:21:30;;;;;;;7.93;4.80;;;;;;;24.99;41.95;102143.91;5073318;28;20020;-74
2021/07/21 03:23:56;;;;;;;9.45;5.05;;;;;;;25.00;42.00;102142.72;5073187;28;20032;-74
2021/07/21 03:26:23;;;;;;;6.38;5.07;;;;;;;24.99;41.86;102140.31;5073469;28;20086;-73
2021/07/21 03:28:51;;;;;;;25.88;6.47;;;;;;;25.06;42.02;102146.03;5073155;28;20028;-74
2021/07/21 03:31:18;;;;;;;24.85;6.57;;;;;;;24.95;41.67;102145.06;5073417;28;20036;-74
2021/07/21 03:33:48;;;;;;;22.58;6.32;;;;;;;24.83;41.85;102137.69;5073344;28;20073;-73
2021/07/21 03:36:14;;;;;;;21.67;5.28;;;;;;;25.39;40.00;102137.69;5073039;28;20053;-74
2021/07/21 03:38:42;;;;;;;9.48;4.80;;;;;;;24.98;41.44;102139.50;5073202;28;20487;-74
2021/07/21 03:41:10;;;;;;;9.18;4.30;;;;;;;24.70;42.03;102142.69;5073167;28;20067;-74
2021/07/21 03:43:36;;;;;;;17.95;5.60;;;;;;;24.67;42.41;102137.84;5072725;28;20391;-74
2021/07/21 03:46:02;;;;;;;7.93;4.90;;;;;;;24.96;41.79;102141.06;5072986;28;20152;-74
2021/07/21 03:48:28;;;;;;;8.00;4.50;;;;;;;25.04;41.81;102142.81;5072902;28;20021;-74
2021/07/21 03:50:56;;;;;;;7.45;4.55;;;;;;;25.03;41.96;102144.81;5072954;28;20048;-73
2021/07/21 03:53:23;;;;;;;10.02;5.38;;;;;;;24.98;42.05;102147.09;5072811;28;20020;-73
2021/07/21 03:55:49;;;;;;;29.58;7.30;;;;;;;24.89;42.02;102148.16;5072690;28;20028;-74
2021/07/21 03:58:15;;;;;;;28.05;6.60;;;;;;;24.72;42.32;102143.13;5072911;28;20021;-74
2021/07/21 04:00:41;;;;;;;29.48;7.82;;;;;;;24.65;42.10;102137.44;5072800;28;20031;-74
2021/07/21 04:03:08;;;;;;;29.73;6.88;;;;;;;24.56;42.15;102145.25;5072889;28;20027;-74
2021/07/21 04:05:34;;;;;;;14.82;5.70;;;;;;;24.53;41.78;102149.59;5071525;28;20064;-74
2021/07/21 04:08:01;;;;;;;22.92;6.47;;;;;;;24.51;41.84;102148.38;5071403;28;20550;-74
2021/07/21 04:10:29;;;;;;;26.70;7.00;;;;;;;24.65;41.46;102153.41;5072716;28;20035;-74
2021/07/21 04:12:57;;;;;;;23.20;6.63;;;;;;;25.15;40.51;102140.94;5072656;28;20046;-74
2021/07/21 04:15:24;;;;;;;34.40;8.40;;;;;;;25.30;39.67;102153.94;5072569;28;20035;-74
2021/07/21 04:17:54;;;;;;;25.95;6.85;;;;;;;25.26;39.50;102153.09;5072495;28;20070;-74
2021/07/21 04:20:20;;;;;;;44.80;9.88;;;;;;;25.15;40.15;102158.53;5071087;28;20039;-74
2021/07/21 04:22:47;;;;;;;11.45;5.30;;;;;;;25.23;40.00;102148.25;5071347;28;20399;-73
2021/07/21 04:25:15;;;;;;;6.20;4.47;;;;;;;24.65;41.48;102159.78;5072390;28;20033;-74
2021/07/21 04:27:42;;;;;;;11.73;5.18;;;;;;;24.46;42.20;102157.88;5072527;28;20035;-74
2021/07/21 04:30:09;;;;;;;86.45;15.35;;;;;;;24.41;42.38;102151.78;5072288;28;20477;-74
2021/07/21 04:32:36;;;;;;;8.32;5.60;;;;;;;24.42;42.74;102159.00;5072370;28;20463;-74
2021/07/21 04:35:06;;;;;;;11.32;5.05;;;;;;;24.47;42.80;102161.47;5072141;28;20044;-74
2021/07/21 04:37:35;;;;;;;8.45;5.15;;;;;;;24.49;42.67;102159.94;5071165;28;20029;-75
2021/07/21 04:40:01;;;;;;;9.57;5.80;;;;;;;24.52;42.79;102155.56;5072300;28;20459;-74
2021/07/21 04:42:28;;;;;;;16.33;5.72;;;;;;;24.39;43.14;102162.53;5072392;28;20028;-74
2021/07/21 04:44:55;;;;;;;21.20;6.47;;;;;;;24.47;42.94;102164.25;5072272;28;20024;-74
2021/07/21 04:47:22;;;;;;;22.98;6.95;;;;;;;24.34;43.27;102166.47;5071073;28;20060;-74
2021/07/21 04:49:51;;;;;;;7.90;4.72;;;;;;;24.49;42.99;102173.09;5072243;28;20025;-74
2021/07/21 04:52:18;;;;;;;7.60;4.78;;;;;;;24.63;43.20;102174.09;5072307;28;20153;-73
2021/07/21 04:54:44;;;;;;;12.95;6.28;;;;;;;24.62;43.12;102175.28;5071925;28;20020;-73
2021/07/21 04:57:10;;;;;;;10.35;5.00;;;;;;;24.70;43.17;102167.03;5074617;28;20039;-74
2021/07/21 04:59:37;;;;;;;23.02;7.32;;;;;;;24.55;43.24;102174.38;5076331;28;20024;-74
2021/07/21 05:02:07;;;;;;;40.63;7.78;;;;;;;24.63;43.08;102174.09;5074797;28;20024;-74
2021/07/21 05:04:35;;;;;;;25.90;6.70;;;;;;;24.57;43.10;102172.03;5076178;28;20021;-73
2021/07/21 05:07:02;;;;;;;20.15;6.22;;;;;;;24.62;42.61;102168.91;5076202;28;20386;-74
2021/07/21 05:09:28;;;;;;;50.20;8.75;;;;;;;24.54;43.27;102175.56;5076086;28;20020;-73
2021/07/21 05:11:54;;;;;;;22.05;7.63;;;;;;;24.54;43.11;102176.38;5076048;28;20027;-73
2021/07/21 05:14:19;;;;;;;36.67;7.65;;;;;;;24.57;42.91;102169.25;5075846;28;20052;-74
2021/07/21 05:16:45;;;;;;;21.27;5.93;;;;;;;24.51;43.20;102176.31;5075918;28;20160;-74
2021/07/21 05:19:11;;;;;;;26.35;7.55;;;;;;;24.53;43.21;102176.75;5074549;28;20546;-73
2021/07/21 05:21:37;;;;;;;27.65;7.95;;;;;;;24.72;42.83;102184.25;5075811;28;20474;-73
2021/07/21 05:24:04;;;;;;;20.83;6.65;;;;;;;24.74;43.39;102193.06;5075644;28;20112;-74
2021/07/21 05:26:30;;;;;;;11.68;5.15;;;;;;;24.86;43.14;102190.03;5075562;28;20024;-75
2021/07/21 05:28:56;;;;;;;5.53;4.05;;;;;;;24.90;42.86;102183.31;5075362;28;20031;-74
2021/07/21 05:31:21;;;;;;;8.70;4.80;;;;;;;24.77;43.43;102190.31;5075584;28;20021;-74
2021/07/21 05:33:47;;;;;;;7.57;4.05;;;;;;;24.88;43.64;102185.69;5075336;28;20027;-73
2021/07/21 05:36:13;;;;;;;7.80;4.78;;;;;;;24.92;43.71;102200.53;5073987;28;20509;-73
2021/07/21 05:38:38;;;;;;;7.32;5.50;;;;;;;24.98;43.71;102194.63;5075552;28;20029;-74
2021/07/21 05:41:06;;;;;;;11.32;4.35;;;;;;;25.03;43.69;102191.50;5074126;28;20382;-73
2021/07/21 05:43:32;;;;;;;17.38;5.80;;;;;;;25.01;43.76;102193.84;5075428;28;20082;-74
2021/07/21 05:45:57;;;;;;;11.00;5.93;;;;;;;25.06;43.93;102196.38;5075071;28;20031;-73
2021/07/21 05:48:23;;;;;;;13.85;5.32;;;;;;;25.18;43.72;102199.75;5075008;28;20109;-74
2021/07/21 05:50:49;;;;;;;13.90;6.15;;;;;;;25.22;43.79;102204.56;5075087;28;20032;-74
2021/07/21 05:53:14;;;;;;;8.38;4.85;;;;;;;25.24;44.33;102199.41;5075093;28;20043;-74
2021/07/21 05:55:40;;;;;;;19.42;6.75;;;;;;;25.33;44.15;102206.34;5075085;28;20024;-73
2021/07/21 05:58:07;;;;;;;10.90;5.35;;;;;;;25.60;43.84;102209.88;5075063;28;20507;-73
2021/07/21 06:00:32;;;;;;;8.88;4.32;;;;;;;25.85;43.59;102209.44;5074878;28;20028;-73
2021/07/21 06:02:58;;;;;;;25.63;8.60;;;;;;;25.93;43.63;102200.72;5074585;28;20394;-73
2021/07/21 06:05:24;;;;;;;16.20;6.60;;;;;;;26.07;43.93;102208.47;5074389;28;20025;-75
2021/07/21 06:07:49;;;;;;;13.43;5.90;;;;;;;26.26;43.87;102208.25;5072498;28;20501;-76
2021/07/21 06:10:16;;;;;;;14.02;7.07;;;;;;;26.50;43.53;102208.88;5074588;28;20028;-74
2021/07/21 06:12:41;;;;;;;24.33;8.57;;;;;;;26.59;43.87;102214.16;5074209;28;20021;-74
2021/07/21 06:15:08;;;;;;;25.23;8.20;;;;;;;26.72;43.77;102221.09;5074470;28;20403;-75
2021/07/21 06:17:34;;;;;;;17.00;7.53;;;;;;;26.79;43.91;102227.56;5073596;28;20046;-74
2021/07/21 06:20:00;;;;;;;15.50;7.00;;;;;;;26.90;43.88;102219.22;5074808;28;20024;-75
2021/07/21 06:22:32;;;;;;;19.35;6.50;;;;;;;26.96;44.03;102217.66;5074757;28;20059;-74
2021/07/21 06:24:59;;;;;;;14.38;7.25;;;;;;;27.19;43.85;102225.03;5074708;28;20027;-78
2021/07/21 06:27:25;;;;;;;11.15;5.55;;;;;;;27.34;43.33;102216.31;5074940;28;20437;-78
2021/07/21 06:29:50;;;;;;;10.43;6.28;;;;;;;27.48;43.29;102221.19;5073069;28;20111;-75
2021/07/21 06:32:16;;;;;;;16.73;8.52;;;;;;;27.51;43.16;102219.63;5074664;28;20402;-75
2021/07/21 06:34:42;;;;;;;9.93;7.10;;;;;;;27.62;43.08;102226.88;5074216;28;20044;-74
2021/07/21 06:37:08;;;;;;;16.63;6.85;;;;;;;27.63;43.11;102219.25;5074110;28;20035;-75
2021/07/21 06:39:34;;;;;;;8.07;6.57;;;;;;;27.75;42.96;102218.13;5073054;28;20039;-74
2021/07/21 06:42:00;;;;;;;15.40;7.90;;;;;;;27.82;43.11;102215.34;5074267;28;20096;-74
2021/07/21 06:44:25;;;;;;;10.32;7.55;;;;;;;27.96;43.04;102211.75;5074649;28;20056;-77
2021/07/21 06:46:51;;;;;;;14.25;6.85;;;;;;;28.09;42.72;102215.81;5072635;28;20024;-78
2021/07/21 06:49:19;;;;;;;9.50;6.43;;;;;;;28.23;42.91;102213.03;5072624;28;20094;-78
2021/07/21 06:51:44;;;;;;;21.15;7.35;;;;;;;28.33;42.92;102214.25;5075066;28;20020;-81
2021/07/21 06:54:10;;;;;;;16.05;6.68;;;;;;;28.46;43.39;102212.69;5074025;28;20031;-76
2021/07/21 06:56:36;;;;;;;16.77;6.72;;;;;;;28.55;43.52;102215.09;5072945;28;20490;-77
2021/07/21 06:59:01;;;;;;;16.08;7.15;;;;;;;28.68;43.62;102219.91;5072473;28;20020;-75
2021/07/21 07:01:27;;;;;;;7.63;5.65;;;;;;;28.71;43.74;102221.09;5073721;28;20101;-77
2021/07/21 07:03:53;;;;;;;12.25;5.38;;;;;;;28.75;43.84;102214.28;5072610;28;20025;-78
2021/07/21 07:06:18;;;;;;;6.38;4.45;;;;;;;28.83;43.94;102220.69;5073148;28;20040;-76
2021/07/21 07:08:44;;;;;;;13.55;5.47;;;;;;;28.36;45.73;102221.91;5071243;28;20515;-76
2021/07/21 07:11:10;;;;;;;8.95;4.32;;;;;;;28.13;46.44;102225.88;5071449;28;20024;-77
2021/07/21 07:13:36;;;;;;;11.63;4.93;;;;;;;28.69;45.57;102227.13;5071431;28;20025;-76
2021/07/21 07:16:02;;;;;;;6.95;3.38;;;;;;;28.59;46.04;102227.94;5071276;28;20024;-77
2021/07/21 07:18:28;;;;;;;13.55;4.28;;;;;;;29.18;44.40;102231.13;5072241;28;20024;-77
2021/07/21 07:20:54;;;;;;;6.15;2.60;;;;;;;28.92;44.97;102228.75;5072309;28;20046;-76
2021/07/21 07:23:20;;;;;;;5.97;2.53;;;;;;;29.21;44.60;102235.13;5072101;28;20025;-76
2021/07/21 07:25:46;;;;;;;7.47;2.88;;;;;;;29.54;43.39;102236.66;5070370;28;20031;-76
2021/07/21 07:28:12;;;;;;;6.57;2.83;;;;;;;29.69;42.87;102238.22;5071724;28;20024;-81
2021/07/21 07:30:38;;;;;;;6.22;3.08;;;;;;;29.61;43.38;102239.44;5071449;28;20028;-77
2021/07/21 07:33:03;;;;;;;4.38;2.58;;;;;;;29.78;42.78;102246.25;5071644;28;20028;-77
2021/07/21 07:35:29;;;;;;;3.72;2.20;;;;;;;30.01;42.48;102242.91;5071083;28;20075;-77
2021/07/21 07:37:55;;;;;;;5.55;2.50;;;;;;;30.15;41.90;102245.63;5072105;28;20475;-81
2021/07/21 07:40:20;;;;;;;4.10;2.20;;;;;;;30.19;42.11;102245.63;5073120;28;20474;-77
2021/07/21 07:42:46;;;;;;;7.22;2.60;;;;;;;30.09;42.31;102244.50;5073187;28;20036;-77
2021/07/21 07:45:13;;;;;;;5.35;2.47;;;;;;;30.23;41.89;102252.03;5071913;28;20386;-77
2021/07/21 07:47:40;;;;;;;6.68;2.45;;;;;;;30.36;41.49;102255.97;5073086;28;20111;-78
2021/07/21 07:50:09;;;;;;;7.90;2.13;;;;;;;30.48;41.40;102260.34;5071862;28;20025;-77
2021/07/21 07:52:35;;;;;;;6.32;2.03;;;;;;;30.43;41.23;102261.56;5071697;28;20441;-77
2021/07/21 07:55:03;;;;;;;5.50;2.67;;;;;;;30.32;41.16;102263.69;5071622;28;20060;-77
2021/07/21 07:57:29;;;;;;;6.55;2.38;;;;;;;30.89;39.86;102251.94;5071649;28;20020;-79
2021/07/21 07:59:54;;;;;;;5.57;2.22;;;;;;;30.96;40.13;102256.72;5072945;28;20016;-78
2021/07/21 08:02:20;;;;;;;8.70;2.60;;;;;;;31.00;39.68;102252.66;5073043;28;20517;-76
2021/07/21 08:04:46;;;;;;;4.68;2.38;;;;;;;31.12;39.17;102254.13;5071315;28;20081;-76
2021/07/21 08:07:12;;;;;;;3.25;2.10;;;;;;;30.63;39.81;102251.34;5072873;28;20029;-77
2021/07/21 08:09:38;;;;;;;5.13;2.10;;;;;;;30.50;40.38;102250.22;5072774;28;20025;-76
2021/07/21 08:12:04;;;;;;;37.92;6.30;;;;;;;30.62;40.27;102248.94;5072726;28;20052;-76
2021/07/21 08:14:30;;;;;;;4.78;1.90;;;;;;;30.62;40.05;102252.56;5071305;28;20509;-76
2021/07/21 08:16:56;;;;;;;20.50;5.18;;;;;;;30.59;40.70;102259.03;5071448;28;20033;-76
2021/07/21 08:19:23;;;;;;;6.32;2.22;;;;;;;30.69;40.28;102248.91;5072559;28;20024;-76
2021/07/21 08:21:50;;;;;;;11.88;3.35;;;;;;;30.86;39.87;102258.44;5072315;28;20534;-77
2021/07/21 08:24:18;;;;;;;5.72;2.20;;;;;;;30.84;40.09;102244.75;5070303;28;20028;-77
2021/07/21 08:26:44;;;;;;;13.50;3.67;;;;;;;30.81;40.20;102254.03;5072574;28;20051;-79
2021/07/21 08:29:11;;;;;;;14.13;3.20;;;;;;;30.90;40.18;102251.53;5071234;28;20029;-77
2021/07/21 08:31:37;;;;;;;8.40;2.60;;;;;;;30.86;40.17;102259.25;5072457;28;20028;-77
2021/07/21 08:34:05;;;;;;;3.92;2.10;;;;;;;31.03;39.95;102259.47;5071072;28;20035;-77
2021/07/21 08:36:35;;;;;;;4.93;2.25;;;;;;;31.02;39.88;102260.69;5070980;28;20044;-77
2021/07/21 08:39:01;;;;;;;;;;;;;;;31.05;39.83;102259.84;5071221;28;20048;-77
2021/07/21 08:41:26;;;;;;;4.18;2.08;;;;;;;31.18;39.27;102258.13;5070834;28;19913;-77
2021/07/21 08:43:54;;;;;;;6.32;1.90;;;;;;;31.29;39.57;102264.50;5072327;28;20024;-78
2021/07/21 08:46:21;;;;;;;29.55;6.78;;;;;;;31.29;39.63;102264.50;5071029;28;20052;-79
2021/07/21 08:48:53;;;;;;;5.18;2.15;;;;;;;31.31;39.52;102259.22;5071090;28;20417;-76
2021/07/21 08:51:22;;;;;;;6.05;2.28;;;;;;;31.43;39.00;102269.97;5072350;28;20021;-77
2021/07/21 08:53:52;;;;;;;4.20;2.25;;;;;;;31.52;39.22;102269.47;5072406;28;20107;-77
2021/07/21 08:56:19;;;;;;;6.72;2.83;;;;;;;31.55;39.34;102267.81;5072157;28;20063;-76
2021/07/21 08:58:47;;;;;;;4.38;2.17;;;;;;;31.65;39.12;102272.53;5070960;28;20021;-76
2021/07/21 09:01:16;;;;;;;4.78;2.25;;;;;;;31.64;38.78;102266.09;5072189;28;20082;-76
2021/07/21 09:03:42;;;;;;;4.65;2.60;;;;;;;31.77;38.28;102266.38;5072157;28;20033;-77
2021/07/21 09:06:11;;;;;;;8.02;2.58;;;;;;;31.90;38.23;102263.78;5072174;28;20410;-77
2021/07/21 09:08:36;;;;;;;4.70;2.15;;;;;;;31.75;38.21;102278.06;5072128;28;20454;-78
2021/07/21 09:11:03;;;;;;;4.70;2.30;;;;;;;31.56;38.34;102273.03;5072239;28;20112;-77
2021/07/21 09:13:29;;;;;;;5.95;2.92;;;;;;;31.52;38.90;102277.16;5070900;28;20090;-79
2021/07/21 09:15:55;;;;;;;11.57;2.45;;;;;;;31.58;38.87;102276.25;5069920;28;20150;-79
2021/07/21 09:18:23;;;;;;;4.93;1.73;;;;;;;31.89;37.95;102277.13;5071275;28;20029;-76
2021/07/21 09:20:55;;;;;;;4.47;1.98;;;;;;;31.93;37.85;102272.19;5069654;28;20056;-79
2021/07/21 09:23:21;;;;;;;4.82;1.92;;;;;;;32.01;37.47;102276.53;5071168;28;20060;-77
2021/07/21 09:25:49;;;;;;;5.50;2.08;;;;;;;32.11;37.70;102279.63;5071492;28;20052;-77
2021/07/21 09:28:16;;;;;;;3.88;2.22;;;;;;;31.54;38.68;102277.53;5071957;28;20031;-77
2021/07/21 09:30:44;;;;;;;8.63;2.50;;;;;;;31.56;39.22;102273.03;5072023;28;20056;-77
2021/07/21 09:33:15;;;;;;;6.07;2.45;;;;;;;31.71;38.98;102279.31;5070780;28;20021;-77
2021/07/21 09:35:51;;;;;;;20.35;3.45;;;;;;;31.64;39.24;102274.56;5070358;28;20098;-77
2021/07/21 09:38:22;;;;;;;10.55;2.75;;;;;;;31.67;39.31;102278.59;5070564;28;20040;-78
2021/07/21 09:40:57;;;;;;;4.80;2.25;;;;;;;31.77;39.00;102280.50;5072269;28;20027;-79
2021/07/21 09:43:27;;;;;;;4.20;2.00;;;;;;;31.78;38.85;102270.78;5073866;28;20036;-80
2021/07/21 09:45:54;;;;;;;7.85;2.60;;;;;;;31.75;38.55;102277.28;5074854;28;20510;-80
2021/07/21 09:48:43;;;;;;;7.50;2.35;;;;;;;31.72;38.84;102269.63;5075717;28;20032;-76
2021/07/21 09:51:10;;;;;;;7.03;2.70;;;;;;;31.83;38.93;102281.63;5075212;28;20035;-75
2021/07/21 09:53:41;;;;;;;5.93;2.25;;;;;;;31.89;38.47;102277.13;5075195;28;20029;-79
2021/07/21 09:56:09;;;;;;;7.85;2.63;;;;;;;32.11;38.79;102276.78;5073916;28;20028;-78
2021/07/21 09:58:35;;;;;;;8.60;2.78;;;;;;;32.21;38.38;102275.88;5075141;28;20120;-78
2021/07/21 10:01:01;;;;;;;3.85;2.08;;;;;;;32.12;38.32;102275.56;5074931;28;20067;-75
2021/07/21 10:03:29;;;;;;;6.50;2.40;;;;;;;32.11;38.37;102276.78;5075155;28;20025;-76
2021/07/21 10:06:05;;;;;;;5.20;2.45;;;;;;;32.14;38.43;102284.44;5073799;28;20021;-75
2021/07/21 10:08:34;;;;;;;10.45;2.47;;;;;;;32.16;37.98;102277.13;5075123;28;20037;-76
2021/07/21 10:11:40;;;;;;;3.50;2.08;;;;;;;32.23;38.41;102282.69;5072464;28;20032;-75
2021/07/21 10:14:15;;;;;;;5.18;2.50;;;;;;;32.29;37.70;102280.19;5074843;28;20032;-79
2021/07/21 10:16:46;;;;;;;7.60;2.88;;;;;;;32.28;37.95;102287.88;5075363;28;20032;-75
2021/07/21 10:19:16;;;;;;;4.15;2.03;;;;;;;32.49;37.36;102281.09;5074791;28;20024;-75
2021/07/21 10:21:44;;;;;;;3.67;2.05;;;;;;;32.74;37.15;102289.19;5070980;28;20445;-76
2021/07/21 10:24:10;;;;;;;6.50;2.00;;;;;;;32.83;36.70;102280.16;5073405;28;20078;-75
2021/07/21 10:26:38;;;;;;;6.88;2.53;;;;;;;32.78;37.15;102278.59;5072492;28;20128;-76
2021/07/21 10:29:06;;;;;;;6.35;2.20;;;;;;;32.77;36.75;102288.31;5074900;28;20472;-76
2021/07/21 10:31:33;;;;;;;5.00;2.13;;;;;;;32.75;36.86;102290.78;5074278;28;20028;-79
2021/07/21 10:34:00;;;;;;;7.20;2.47;;;;;;;32.76;37.09;102288.75;5073483;28;20036;-76
2021/07/21 10:36:26;;;;;;;8.43;2.22;;;;;;;32.72;37.19;102291.66;5073198;28;20082;-83
2021/07/21 10:38:52;;;;;;;4.15;1.98;;;;;;;32.82;36.76;102290.69;5073731;28;20082;-76
2021/07/21 10:41:19;;;;;;;13.98;3.65;;;;;;;32.94;36.84;102292.09;5074287;28;20413;-76
2021/07/21 10:43:46;;;;;;;4.07;1.77;;;;;;;32.84;36.98;102299.53;5074455;28;20534;-78
2021/07/21 10:46:31;;;;;;;4.68;2.28;;;;;;;33.42;35.65;102293.69;5074196;28;20039;-76
2021/07/21 10:49:32;;;;;;;3.13;1.92;;;;;;;33.23;35.77;102291.59;5074354;28;20066;-76
2021/07/21 11:00:19;;;;;;;3.28;2.05;;;;;;;32.65;37.31;102303.09;5074356;28;20050;-81
2021/07/21 11:02:45;;;;;;;;;;;;;;;32.63;37.13;102299.88;5074522;28;20031;-76
2021/07/21 11:05:30;;;;;;;20.77;5.22;;;;;;;32.70;37.21;102290.47;5073966;28;19919;-78
2021/07/21 11:07:57;;;;;;;6.72;2.20;;;;;;;32.77;36.90;102288.31;5073869;28;20028;-80
2021/07/21 11:10:30;;;;;;;7.03;2.22;;;;;;;32.81;36.90;102291.91;5072491;28;20062;-76
2021/07/21 11:12:56;;;;;;;5.78;2.63;;;;;;;32.85;36.83;102294.69;5073728;28;20043;-75
2021/07/21 11:15:39;;;;;;;5.40;2.38;;;;;;;32.70;37.27;102294.09;5073655;28;20029;-75
2021/07/21 11:18:23;;;;;;;4.38;2.22;;;;;;;32.87;36.80;102292.22;5073668;28;20036;-79
2021/07/21 11:21:20;;;;;;;4.47;2.10;;;;;;;32.83;36.55;102297.13;5073638;28;20117;-75
2021/07/21 11:23:59;;;;;;;3.97;1.80;;;;;;;32.89;36.63;102295.44;5072959;28;20055;-75
2021/07/21 11:26:34;;;;;;;3.95;2.00;;;;;;;32.83;36.24;102289.44;5067032;28;20052;-82
2021/07/21 11:29:25;;;;;;;3.25;1.60;;;;;;;32.64;36.50;102281.66;5076139;28;20089;-81
2021/07/21 11:31:54;;;;;;;4.28;1.88;;;;;;;32.62;36.78;102284.13;5073297;28;20047;-80
2021/07/21 11:34:36;;;;;;;3.55;1.67;;;;;;;32.66;36.74;102286.91;5078413;28;20020;-79
2021/07/21 11:37:06;;;;;;;7.45;2.67;;;;;;;32.68;36.93;102292.94;5087889;28;20036;-79
2021/07/21 11:39:39;;;;;;;4.70;2.65;;;;;;;32.81;36.49;102288.28;5083918;28;20032;-78
2021/07/21 11:42:07;;;;;;;10.85;2.78;;;;;;;33.00;36.31;102284.72;5078698;28;20485;-81